Stations météo

Publicité
Cholet, France (7233): Température de l'air & dewpoint: 12.02.2020 19:00:00 - 18.02.2020 19:00:00 (CET)Cholet, France (7233): Vitesse du vent & gusts: 12.02.2020 19:00:00 - 18.02.2020 19:00:00 (CET)Cholet, France (7233): Direction du vent: 12.02.2020 19:00:00 - 18.02.2020 19:00:00 (CET)Cholet, France (7233): reduced air pressure: 12.02.2020 19:00:00 - 18.02.2020 19:00:00 (CET)Cholet, France (7233): Quantités de précipitations: 12.02.2020 19:00:00 - 18.02.2020 19:00:00 (CET)
Date & Time tt [°C] td [°C] ff [km/h] ff [knt] fx [km/h] fx [knt] dd ppp [hPa] rr [mm]
18.02.2020 19:00:00 - - - - - - - - -
18.02.2020 18:00:00 9,4 4,2 15 8 35 19 WSW 1029,5 0,0
18.02.2020 17:00:00 10,2 5,4 16 9 37 20 SW 1029,6 0,0
18.02.2020 16:00:00 10,8 4,5 16 9 39 21 SW 1029,6 0,0
18.02.2020 15:00:00 10,7 5,2 22 12 35 19 SW 1030,0 0,0
18.02.2020 14:00:00 10,2 6,0 11 6 37 20 WSW 1030,7 0,8
18.02.2020 13:00:00 11,1 6,0 15 8 31 17 SW 1031,1 -
18.02.2020 12:00:00 9,9 5,7 15 8 28 15 SW 1031,9 0,0
18.02.2020 11:00:00 8,9 4,9 13 7 26 14 SW 1032,0 0,0
18.02.2020 10:00:00 7,3 5,4 11 6 21 11 SSW 1031,7 0,0
18.02.2020 09:00:00 6,1 4,7 8 4 15 8 SW 1031,6 0,0
18.02.2020 08:00:00 5,5 4,1 9 5 16 9 SW 1031,1 0,2
18.02.2020 07:00:00 4,6 3,3 8 4 15 8 SSW 1030,7 -
18.02.2020 06:00:00 4,6 2,9 8 4 13 7 SSW 1030,8 0,0
18.02.2020 05:00:00 4,8 3,1 8 4 13 7 SSW 1030,8 0,0
18.02.2020 04:00:00 4,7 2,9 8 4 15 8 SSW 1030,9 0,0
18.02.2020 03:00:00 4,3 3,0 9 5 13 7 SSW 1031,0 0,0
18.02.2020 02:00:00 4,8 3,5 8 4 16 9 SSW 1030,7 0,0
18.02.2020 01:00:00 4,8 3,3 8 4 15 8 SSW 1030,4 -
18.02.2020 00:00:00 5,0 3,7 5 3 16 9 SW 1029,9 0,0
17.02.2020 23:00:00 5,3 3,8 8 4 26 14 SW 1029,5 0,0
17.02.2020 22:00:00 6,0 3,7 11 6 24 13 SW 1029,0 0,0
17.02.2020 21:00:00 6,4 3,4 11 6 31 17 SW 1028,1 0,0
17.02.2020 20:00:00 7,1 3,9 11 6 29 16 WSW 1027,4 0,0
17.02.2020 19:00:00 8,1 3,7 13 7 35 19 WSW 1026,3 -
17.02.2020 18:00:00 9,1 3,3 16 9 46 25 WSW 1025,2 0,0
17.02.2020 17:00:00 10,1 2,9 24 13 44 24 W 1024,4 0,0
17.02.2020 16:00:00 9,1 4,3 22 12 44 24 W 1023,7 0,0
17.02.2020 15:00:00 10,4 4,3 21 11 46 25 W 1023,2 0,0
17.02.2020 14:00:00 10,4 5,8 18 10 41 22 WSW 1023,1 0,0
17.02.2020 13:00:00 8,2 5,7 26 14 54 29 W 1023,1 -
17.02.2020 12:00:00 10,8 6,2 24 13 50 27 SW 1021,8 0,0
17.02.2020 11:00:00 10,3 5,5 18 10 39 21 SW 1021,4 0,0
17.02.2020 10:00:00 8,8 6,8 15 8 28 15 SW 1020,8 0,0
17.02.2020 09:00:00 7,5 6,4 15 8 39 21 SW 1020,3 0,4
17.02.2020 08:00:00 7,9 6,7 16 9 29 16 SSW 1019,3 0,0
17.02.2020 07:00:00 8,0 6,9 15 8 35 19 SSW 1018,6 -
17.02.2020 06:00:00 8,2 7,0 21 11 39 21 SSW 1018,0 0,2
17.02.2020 05:00:00 8,6 8,0 16 9 26 14 SSW 1018,0 0,0
17.02.2020 04:00:00 8,3 7,5 13 7 28 15 SSW 1017,5 0,0
17.02.2020 03:00:00 8,6 8,0 16 9 31 17 SSW 1018,1 0,0
17.02.2020 02:00:00 8,5 7,7 13 7 26 14 SW 1017,7 0,0
17.02.2020 01:00:00 8,5 8,1 15 8 24 13 SSW 1018,2 -
17.02.2020 00:00:00 8,2 7,6 13 7 24 13 SW 1018,3 2,0
16.02.2020 23:00:00 8,3 7,7 13 7 28 15 SW 1017,7 3,0
16.02.2020 22:00:00 8,5 7,7 13 7 37 20 WSW 1016,9 1,0
16.02.2020 21:00:00 8,8 8,3 9 5 37 20 W 1015,9 0,6
16.02.2020 20:00:00 9,4 8,8 18 10 50 27 W 1015,0 1,0
16.02.2020 19:00:00 13,7 11,7 35 19 81 44 SSW 1012,1 -
16.02.2020 18:00:00 15,2 10,6 37 20 94 51 SSW 1011,4 0,0
16.02.2020 17:00:00 16,0 10,3 42 23 81 44 SSW 1011,5 0,0
16.02.2020 16:00:00 16,3 10,4 46 25 85 46 SSW 1011,5 0,0
16.02.2020 15:00:00 16,6 10,2 41 22 93 50 SSW 1011,7 0,0
16.02.2020 14:00:00 16,4 10,5 39 21 78 42 SW 1012,1 0,0
16.02.2020 13:00:00 16,2 10,5 39 21 85 46 SW 1012,4 -
16.02.2020 12:00:00 16,4 10,5 39 21 78 42 SW 1012,5 0,0
16.02.2020 11:00:00 15,8 10,5 34 18 63 34 SSW 1012,3 0,0
16.02.2020 10:00:00 13,9 9,9 29 16 81 44 SSW 1012,5 0,0
16.02.2020 09:00:00 14,5 9,7 31 17 54 29 SSW 1012,6 0,0
16.02.2020 08:00:00 12,8 9,1 29 16 52 28 SSW 1012,9 0,0
16.02.2020 07:00:00 12,5 9,0 28 15 48 26 SSW 1013,5 -
16.02.2020 06:00:00 11,8 8,8 26 14 42 23 S 1013,7 0,0
16.02.2020 05:00:00 12,4 8,9 26 14 48 26 S 1014,4 0,0
16.02.2020 04:00:00 12,6 8,7 22 12 42 23 S 1014,9 0,0
16.02.2020 03:00:00 12,8 7,9 24 13 41 22 S 1015,2 0,0
16.02.2020 02:00:00 12,6 7,5 22 12 41 22 S 1015,7 0,0
16.02.2020 01:00:00 12,0 7,7 26 14 42 23 S 1015,8 -
16.02.2020 00:00:00 11,9 8,2 28 15 44 24 S 1016,7 0,0
15.02.2020 23:00:00 11,6 8,8 22 12 50 27 S 1016,8 0,2
15.02.2020 22:00:00 11,4 8,6 24 13 44 24 S 1017,6 0,0
15.02.2020 21:00:00 11,2 8,2 22 12 35 19 S 1017,8 0,0
15.02.2020 20:00:00 11,0 8,0 21 11 44 24 SSW 1018,4 0,2
15.02.2020 19:00:00 11,3 7,6 28 15 44 24 S 1017,5 -
15.02.2020 18:00:00 11,6 7,3 26 14 42 23 S 1018,0 0,0
15.02.2020 17:00:00 12,0 7,3 22 12 48 26 SSW 1018,5 0,0
15.02.2020 16:00:00 12,4 7,9 28 15 54 29 SSW 1018,0 0,0
15.02.2020 15:00:00 13,1 8,2 28 15 46 25 SSW 1018,6 0,0
15.02.2020 14:00:00 13,5 7,7 22 12 42 23 S 1018,9 0,0
15.02.2020 13:00:00 12,8 7,0 28 15 44 24 S 1019,2 -
15.02.2020 12:00:00 12,8 7,9 26 14 44 24 S 1020,0 0,0
15.02.2020 11:00:00 11,4 6,9 24 13 39 21 S 1021,1 0,0
15.02.2020 10:00:00 9,5 6,9 18 10 35 19 S 1021,7 0,0
15.02.2020 09:00:00 8,7 7,1 13 7 29 16 S 1022,2 0,0
15.02.2020 08:00:00 8,3 7,5 16 9 24 13 SSE 1021,3 0,0
15.02.2020 07:00:00 8,6 7,8 13 7 21 11 S 1021,9 -
15.02.2020 06:00:00 8,9 8,3 13 7 22 12 S 1022,4 0,0
15.02.2020 05:00:00 8,9 8,3 16 9 29 16 S 1022,7 0,0
15.02.2020 04:00:00 9,1 8,6 18 10 29 16 S 1022,5 0,0
15.02.2020 03:00:00 9,1 8,5 16 9 24 13 S 1023,2 0,0
15.02.2020 02:00:00 9,4 8,8 13 7 26 14 S 1023,6 0,0
15.02.2020 01:00:00 9,7 8,9 15 8 28 15 SSW 1023,6 -
15.02.2020 00:00:00 9,9 9,1 16 9 28 15 SSW 1023,8 0,0
14.02.2020 23:00:00 9,8 9,0 15 8 22 12 SSW 1024,0 0,0
14.02.2020 22:00:00 9,7 8,5 11 6 22 12 SSW 1024,8 0,0
14.02.2020 21:00:00 9,4 7,7 15 8 18 10 S 1024,8 0,0
14.02.2020 20:00:00 10,0 7,1 9 5 22 12 S 1025,2 0,0
14.02.2020 19:00:00 10,6 6,7 13 7 28 15 SSW 1025,3 -
14.02.2020 18:00:00 11,5 6,8 16 9 29 16 SSW 1024,7 0,0
14.02.2020 17:00:00 11,8 6,1 18 10 34 18 SSW 1024,4 0,0
14.02.2020 16:00:00 12,7 6,1 16 9 35 19 SSW 1024,1 0,0
14.02.2020 15:00:00 12,4 6,2 16 9 34 18 SSW 1024,6 0,0
14.02.2020 14:00:00 12,3 5,9 21 11 35 19 SSW 1025,3 0,0
14.02.2020 13:00:00 12,3 7,2 15 8 34 18 SW 1025,6 -
14.02.2020 12:00:00 11,5 6,0 15 8 28 15 SSW 1025,7 0,0
14.02.2020 11:00:00 10,9 5,6 13 7 21 11 SW 1025,6 0,0
14.02.2020 10:00:00 9,3 6,2 8 4 15 8 SSW 1025,6 0,0
14.02.2020 09:00:00 8,4 6,5 8 4 13 7 SSW 1025,2 0,0
14.02.2020 08:00:00 8,1 6,4 8 4 11 6 SSW 1024,5 0,0
14.02.2020 07:00:00 8,0 6,5 5 3 15 8 SW 1023,7 -
14.02.2020 06:00:00 8,0 6,3 9 5 18 10 WSW 1022,9 0,0
14.02.2020 05:00:00 8,6 6,9 9 5 21 11 WSW 1022,3 0,0
14.02.2020 04:00:00 8,9 6,9 8 4 18 10 SW 1022,1 0,0
14.02.2020 03:00:00 9,0 6,6 9 5 21 11 WSW 1021,5 0,0
14.02.2020 02:00:00 9,0 7,0 9 5 22 12 WSW 1021,3 0,0
14.02.2020 01:00:00 9,2 7,3 11 6 29 16 W 1020,7 -
14.02.2020 00:00:00 9,5 6,6 11 6 28 15 WSW 1020,2 0,0
13.02.2020 23:00:00 9,5 5,9 15 8 42 23 W 1019,4 0,0
13.02.2020 22:00:00 9,4 6,7 22 12 41 22 W 1018,1 0,0
13.02.2020 21:00:00 9,2 6,5 18 10 44 24 W 1016,9 0,0
13.02.2020 20:00:00 9,6 6,3 22 12 59 32 W 1015,4 0,0
13.02.2020 19:00:00 9,7 6,8 26 14 63 34 WSW 1014,3 -
13.02.2020 18:00:00 10,4 6,3 29 16 74 40 WSW 1012,3 0,0
13.02.2020 17:00:00 11,1 5,4 37 20 78 42 WSW 1011,0 0,0
13.02.2020 16:00:00 11,3 5,0 37 20 80 43 WSW 1009,9 0,0
13.02.2020 15:00:00 11,4 4,8 35 19 83 45 WSW 1008,8 0,0
13.02.2020 14:00:00 11,0 4,9 34 18 65 35 WSW 1009,4 0,0
13.02.2020 13:00:00 9,4 6,5 26 14 59 32 WSW 1009,4 -
13.02.2020 12:00:00 10,9 5,0 26 14 74 40 WSW 1009,2 0,0
13.02.2020 11:00:00 10,7 6,6 29 16 72 39 W 1008,5 0,0
13.02.2020 10:00:00 11,1 9,4 29 16 63 34 SW 1007,7 0,4
13.02.2020 09:00:00 11,7 10,1 34 18 70 38 SW 1007,5 0,0
13.02.2020 08:00:00 11,3 10,4 29 16 55 30 SW 1007,5 1,0
13.02.2020 07:00:00 10,4 9,9 28 15 54 29 SSW 1008,4 -
13.02.2020 06:00:00 8,1 7,5 35 19 57 31 S 1009,3 0,0
13.02.2020 05:00:00 8,2 6,8 34 18 55 30 S 1010,3 0,6
13.02.2020 04:00:00 8,0 4,9 28 15 48 26 S 1012,2 0,0
13.02.2020 03:00:00 7,8 4,2 24 13 46 25 S 1013,8 0,0
13.02.2020 02:00:00 7,6 3,8 24 13 37 20 S 1014,6 0,0
13.02.2020 01:00:00 7,3 5,3 18 10 28 15 S 1016,4 -
13.02.2020 00:00:00 6,5 5,1 13 7 18 10 S 1017,9 0,0
12.02.2020 23:00:00 5,6 4,6 11 6 18 10 S 1018,8 0,0
12.02.2020 22:00:00 6,0 4,5 8 4 16 9 S 1019,8 0,0
12.02.2020 21:00:00 6,9 4,9 11 6 21 11 S 1020,5 0,0
12.02.2020 20:00:00 7,1 4,7 13 7 21 11 S 1021,0 0,0
12.02.2020 19:00:00 8,1 4,3 11 6 24 13 S 1021,1 -

tt = Température de l'air
td = dewpoint
ff = Vitesse du vent
fx = gusts
dd = Direction du vent
ppp = reduced air pressure
rr = Quantités de précipitations

stations d'obs. à proximité